Manyberries, Canada
Current Conditions -  °F | °C
As of 1:24 PM on Thursday 27 Nov 2014 (Local Time) from CYXH Reporting Station
Overcast Overcast  
Wind Chill: 32°   Ceiling: 1400
Heat Index: 32°   Visibility: 15mi
Dew Point: 28°   Wind: 2mph
Humidity: 87%   Direction: NA
Pressure: 29.73"   Gusts: NA
Location:  49.4°N, 110.7°W
Report Text: CYXH 272024Z VRB02KT 15SM OVC014 M00/M02 A2973 RMK SC8 SLP094
Loading
Personal Weather Stations






























Interactive Weather Map New forecast layout! Learn more

10-Day Weather Forecast

Advertisements
Track Severe Weather on mobile